sensor_id;sensor_type;location;lat;lon;timestamp;P1;durP1;ratioP1;P2;durP2;ratioP2
59434;SDS011;45241;49.768;8.636;2023-07-20T00:01:58;3.60;;;1.55;;
59434;SDS011;45241;49.768;8.636;2023-07-20T00:04:24;2.80;;;1.67;;
59434;SDS011;45241;49.768;8.636;2023-07-20T00:06:49;3.53;;;1.63;;
59434;SDS011;45241;49.768;8.636;2023-07-20T00:09:14;2.50;;;1.67;;
59434;SDS011;45241;49.768;8.636;2023-07-20T00:11:39;4.60;;;1.60;;
59434;SDS011;45241;49.768;8.636;2023-07-20T00:14:05;5.22;;;1.95;;
59434;SDS011;45241;49.768;8.636;2023-07-20T00:16:31;4.03;;;1.55;;
59434;SDS011;45241;49.768;8.636;2023-07-20T00:18:56;3.35;;;1.63;;
59434;SDS011;45241;49.768;8.636;2023-07-20T00:21:21;7.03;;;1.75;;
59434;SDS011;45241;49.768;8.636;2023-07-20T00:23:47;4.57;;;1.58;;
59434;SDS011;45241;49.768;8.636;2023-07-20T00:26:12;3.13;;;1.40;;
59434;SDS011;45241;49.768;8.636;2023-07-20T00:28:37;4.10;;;1.73;;
59434;SDS011;45241;49.768;8.636;2023-07-20T00:31:02;4.72;;;1.58;;
59434;SDS011;45241;49.768;8.636;2023-07-20T00:33:29;3.42;;;1.58;;
59434;SDS011;45241;49.768;8.636;2023-07-20T00:35:54;3.88;;;1.60;;
59434;SDS011;45241;49.768;8.636;2023-07-20T00:38:19;5.90;;;1.35;;
59434;SDS011;45241;49.768;8.636;2023-07-20T00:40:45;4.88;;;1.63;;
59434;SDS011;45241;49.768;8.636;2023-07-20T00:43:11;2.00;;;1.40;;
59434;SDS011;45241;49.768;8.636;2023-07-20T00:45:36;3.55;;;1.60;;
59434;SDS011;45241;49.768;8.636;2023-07-20T00:48:03;5.38;;;1.75;;
59434;SDS011;45241;49.768;8.636;2023-07-20T00:50:30;2.55;;;1.27;;
59434;SDS011;45241;49.768;8.636;2023-07-20T00:52:55;2.55;;;1.60;;
59434;SDS011;45241;49.768;8.636;2023-07-20T00:55:21;3.20;;;1.60;;
59434;SDS011;45241;49.768;8.636;2023-07-20T00:57:48;4.25;;;1.70;;
59434;SDS011;45241;49.768;8.636;2023-07-20T01:00:13;4.90;;;1.77;;
59434;SDS011;45241;49.768;8.636;2023-07-20T01:02:40;6.13;;;1.60;;
59434;SDS011;45241;49.768;8.636;2023-07-20T01:05:05;3.50;;;1.60;;
59434;SDS011;45241;49.768;8.636;2023-07-20T01:07:35;5.55;;;1.92;;
59434;SDS011;45241;49.768;8.636;2023-07-20T01:12:48;3.22;;;1.88;;
59434;SDS011;45241;49.768;8.636;2023-07-20T01:15:17;4.70;;;1.55;;
59434;SDS011;45241;49.768;8.636;2023-07-20T01:17:42;2.33;;;1.42;;
59434;SDS011;45241;49.768;8.636;2023-07-20T01:20:10;2.50;;;1.73;;
59434;SDS011;45241;49.768;8.636;2023-07-20T01:22:55;3.22;;;1.60;;
59434;SDS011;45241;49.768;8.636;2023-07-20T01:33:41;6.53;;;1.60;;
59434;SDS011;45241;49.768;8.636;2023-07-20T01:36:09;4.18;;;1.35;;
59434;SDS011;45241;49.768;8.636;2023-07-20T01:38:36;5.07;;;1.55;;
59434;SDS011;45241;49.768;8.636;2023-07-20T01:41:02;3.08;;;2.00;;
59434;SDS011;45241;49.768;8.636;2023-07-20T01:43:28;4.72;;;1.42;;
59434;SDS011;45241;49.768;8.636;2023-07-20T01:45:54;2.30;;;1.67;;
59434;SDS011;45241;49.768;8.636;2023-07-20T01:48:19;3.17;;;1.70;;
59434;SDS011;45241;49.768;8.636;2023-07-20T01:50:44;2.65;;;1.40;;
59434;SDS011;45241;49.768;8.636;2023-07-20T01:53:10;3.67;;;1.48;;
59434;SDS011;45241;49.768;8.636;2023-07-20T01:55:36;4.82;;;1.83;;
59434;SDS011;45241;49.768;8.636;2023-07-20T01:58:01;6.32;;;1.90;;
59434;SDS011;45241;49.768;8.636;2023-07-20T02:00:28;3.08;;;1.52;;
59434;SDS011;45241;49.768;8.636;2023-07-20T02:02:53;5.13;;;1.77;;
59434;SDS011;45241;49.768;8.636;2023-07-20T02:05:19;5.82;;;1.85;;
59434;SDS011;45241;49.768;8.636;2023-07-20T02:07:44;3.22;;;1.40;;
59434;SDS011;45241;49.768;8.636;2023-07-20T02:10:09;4.78;;;1.70;;
59434;SDS011;45241;49.768;8.636;2023-07-20T02:12:35;5.45;;;1.80;;
59434;SDS011;45241;49.768;8.636;2023-07-20T02:15:00;2.90;;;1.77;;
59434;SDS011;45241;49.768;8.636;2023-07-20T02:17:26;5.10;;;1.70;;
59434;SDS011;45241;49.768;8.636;2023-07-20T02:19:52;4.03;;;1.90;;
59434;SDS011;45241;49.768;8.636;2023-07-20T02:22:19;5.22;;;1.80;;
59434;SDS011;45241;49.768;8.636;2023-07-20T02:24:45;4.22;;;1.80;;
59434;SDS011;45241;49.768;8.636;2023-07-20T02:27:10;2.30;;;1.80;;
59434;SDS011;45241;49.768;8.636;2023-07-20T02:29:35;3.88;;;1.50;;
59434;SDS011;45241;49.768;8.636;2023-07-20T02:32:01;6.95;;;1.92;;
59434;SDS011;45241;49.768;8.636;2023-07-20T02:34:27;2.70;;;1.40;;
59434;SDS011;45241;49.768;8.636;2023-07-20T02:36:52;5.75;;;1.90;;
59434;SDS011;45241;49.768;8.636;2023-07-20T02:39:17;2.45;;;1.80;;
59434;SDS011;45241;49.768;8.636;2023-07-20T02:41:43;3.65;;;1.83;;
59434;SDS011;45241;49.768;8.636;2023-07-20T02:44:08;3.33;;;1.63;;
59434;SDS011;45241;49.768;8.636;2023-07-20T02:46:33;4.13;;;1.80;;
59434;SDS011;45241;49.768;8.636;2023-07-20T02:49:00;4.47;;;2.00;;
59434;SDS011;45241;49.768;8.636;2023-07-20T02:51:25;3.72;;;1.67;;
59434;SDS011;45241;49.768;8.636;2023-07-20T02:53:50;1.90;;;1.70;;
59434;SDS011;45241;49.768;8.636;2023-07-20T02:56:16;2.88;;;1.75;;
59434;SDS011;45241;49.768;8.636;2023-07-20T02:58:43;3.75;;;1.77;;
59434;SDS011;45241;49.768;8.636;2023-07-20T03:01:08;4.55;;;1.83;;
59434;SDS011;45241;49.768;8.636;2023-07-20T03:03:34;1.90;;;1.50;;
59434;SDS011;45241;49.768;8.636;2023-07-20T03:06:03;4.95;;;1.60;;
59434;SDS011;45241;49.768;8.636;2023-07-20T03:08:34;2.30;;;1.80;;
59434;SDS011;45241;49.768;8.636;2023-07-20T03:11:00;4.18;;;1.60;;
59434;SDS011;45241;49.768;8.636;2023-07-20T03:13:26;4.60;;;1.95;;
59434;SDS011;45241;49.768;8.636;2023-07-20T03:15:52;3.72;;;1.80;;
59434;SDS011;45241;49.768;8.636;2023-07-20T03:18:17;5.50;;;1.60;;
59434;SDS011;45241;49.768;8.636;2023-07-20T03:20:43;2.67;;;1.58;;
59434;SDS011;45241;49.768;8.636;2023-07-20T03:23:08;2.97;;;1.70;;
59434;SDS011;45241;49.768;8.636;2023-07-20T03:25:33;3.80;;;1.65;;
59434;SDS011;45241;49.768;8.636;2023-07-20T03:27:59;3.58;;;1.80;;
59434;SDS011;45241;49.768;8.636;2023-07-20T03:30:24;2.38;;;1.80;;
59434;SDS011;45241;49.768;8.636;2023-07-20T03:32:50;4.38;;;2.00;;
59434;SDS011;45241;49.768;8.636;2023-07-20T03:35:16;5.32;;;1.77;;
59434;SDS011;45241;49.768;8.636;2023-07-20T03:37:41;1.92;;;1.60;;
59434;SDS011;45241;49.768;8.636;2023-07-20T03:40:07;2.95;;;1.73;;
59434;SDS011;45241;49.768;8.636;2023-07-20T03:42:33;2.50;;;1.80;;
59434;SDS011;45241;49.768;8.636;2023-07-20T03:44:58;3.25;;;1.73;;
59434;SDS011;45241;49.768;8.636;2023-07-20T03:47:23;3.25;;;1.88;;
59434;SDS011;45241;49.768;8.636;2023-07-20T03:49:49;3.15;;;1.88;;
59434;SDS011;45241;49.768;8.636;2023-07-20T03:52:14;3.80;;;1.95;;
59434;SDS011;45241;49.768;8.636;2023-07-20T03:54:39;2.05;;;1.77;;
59434;SDS011;45241;49.768;8.636;2023-07-20T03:57:05;3.40;;;1.80;;
59434;SDS011;45241;49.768;8.636;2023-07-20T03:59:30;6.35;;;2.00;;
59434;SDS011;45241;49.768;8.636;2023-07-20T04:01:55;3.03;;;1.90;;
59434;SDS011;45241;49.768;8.636;2023-07-20T04:04:21;4.15;;;1.85;;
59434;SDS011;45241;49.768;8.636;2023-07-20T04:06:46;2.72;;;1.70;;
59434;SDS011;45241;49.768;8.636;2023-07-20T04:09:11;3.03;;;1.90;;
59434;SDS011;45241;49.768;8.636;2023-07-20T04:11:37;4.93;;;1.83;;
59434;SDS011;45241;49.768;8.636;2023-07-20T04:14:03;3.03;;;1.70;;
59434;SDS011;45241;49.768;8.636;2023-07-20T04:16:28;4.00;;;1.73;;
59434;SDS011;45241;49.768;8.636;2023-07-20T04:18:57;2.63;;;1.70;;
59434;SDS011;45241;49.768;8.636;2023-07-20T04:21:22;3.83;;;1.95;;
59434;SDS011;45241;49.768;8.636;2023-07-20T04:23:48;3.17;;;1.58;;
59434;SDS011;45241;49.768;8.636;2023-07-20T04:26:13;2.78;;;1.90;;
59434;SDS011;45241;49.768;8.636;2023-07-20T04:28:39;3.85;;;1.90;;
59434;SDS011;45241;49.768;8.636;2023-07-20T04:31:11;2.47;;;1.80;;
59434;SDS011;45241;49.768;8.636;2023-07-20T04:33:40;3.90;;;1.98;;
59434;SDS011;45241;49.768;8.636;2023-07-20T04:36:06;3.45;;;1.83;;
59434;SDS011;45241;49.768;8.636;2023-07-20T04:38:32;3.75;;;1.58;;
59434;SDS011;45241;49.768;8.636;2023-07-20T04:40:57;3.10;;;1.42;;
59434;SDS011;45241;49.768;8.636;2023-07-20T04:43:22;4.10;;;1.58;;
59434;SDS011;45241;49.768;8.636;2023-07-20T04:45:48;3.83;;;1.65;;
59434;SDS011;45241;49.768;8.636;2023-07-20T04:48:14;2.40;;;1.63;;
59434;SDS011;45241;49.768;8.636;2023-07-20T04:50:41;3.35;;;1.85;;
59434;SDS011;45241;49.768;8.636;2023-07-20T04:53:08;5.45;;;1.67;;
59434;SDS011;45241;49.768;8.636;2023-07-20T04:55:35;3.13;;;2.08;;
59434;SDS011;45241;49.768;8.636;2023-07-20T04:58:01;3.00;;;1.70;;
59434;SDS011;45241;49.768;8.636;2023-07-20T05:00:28;3.55;;;1.40;;
59434;SDS011;45241;49.768;8.636;2023-07-20T05:02:54;4.15;;;1.83;;
59434;SDS011;45241;49.768;8.636;2023-07-20T05:05:20;5.05;;;1.80;;
59434;SDS011;45241;49.768;8.636;2023-07-20T05:07:45;3.10;;;1.65;;
59434;SDS011;45241;49.768;8.636;2023-07-20T05:10:10;2.90;;;1.73;;
59434;SDS011;45241;49.768;8.636;2023-07-20T05:12:36;3.70;;;1.50;;
59434;SDS011;45241;49.768;8.636;2023-07-20T05:15:02;6.35;;;1.75;;
59434;SDS011;45241;49.768;8.636;2023-07-20T05:17:28;2.90;;;1.80;;
59434;SDS011;45241;49.768;8.636;2023-07-20T05:19:53;2.83;;;1.80;;
59434;SDS011;45241;49.768;8.636;2023-07-20T05:22:19;2.40;;;1.60;;
59434;SDS011;45241;49.768;8.636;2023-07-20T05:24:44;2.65;;;1.70;;
59434;SDS011;45241;49.768;8.636;2023-07-20T05:27:10;4.53;;;2.20;;
59434;SDS011;45241;49.768;8.636;2023-07-20T05:29:35;3.25;;;1.77;;
59434;SDS011;45241;49.768;8.636;2023-07-20T05:32:00;4.28;;;1.70;;
59434;SDS011;45241;49.768;8.636;2023-07-20T05:34:26;3.60;;;1.88;;
59434;SDS011;45241;49.768;8.636;2023-07-20T05:36:51;2.90;;;1.60;;
59434;SDS011;45241;49.768;8.636;2023-07-20T05:39:17;4.18;;;1.67;;
59434;SDS011;45241;49.768;8.636;2023-07-20T05:41:43;3.55;;;1.70;;
59434;SDS011;45241;49.768;8.636;2023-07-20T05:44:08;4.90;;;1.90;;
59434;SDS011;45241;49.768;8.636;2023-07-20T05:46:33;4.03;;;1.58;;
59434;SDS011;45241;49.768;8.636;2023-07-20T05:48:59;4.25;;;1.80;;
59434;SDS011;45241;49.768;8.636;2023-07-20T05:51:24;2.88;;;1.90;;
59434;SDS011;45241;49.768;8.636;2023-07-20T05:53:49;3.92;;;1.92;;
59434;SDS011;45241;49.768;8.636;2023-07-20T05:56:15;3.13;;;1.85;;
59434;SDS011;45241;49.768;8.636;2023-07-20T05:58:40;5.40;;;2.35;;
59434;SDS011;45241;49.768;8.636;2023-07-20T06:01:05;4.40;;;1.80;;
59434;SDS011;45241;49.768;8.636;2023-07-20T06:03:31;3.00;;;1.80;;
59434;SDS011;45241;49.768;8.636;2023-07-20T06:06:01;4.03;;;2.00;;
59434;SDS011;45241;49.768;8.636;2023-07-20T06:08:27;5.13;;;1.80;;
59434;SDS011;45241;49.768;8.636;2023-07-20T06:10:56;4.75;;;1.73;;
59434;SDS011;45241;49.768;8.636;2023-07-20T06:13:22;4.07;;;1.67;;
59434;SDS011;45241;49.768;8.636;2023-07-20T06:15:48;6.38;;;1.98;;
59434;SDS011;45241;49.768;8.636;2023-07-20T06:18:14;4.05;;;1.77;;
59434;SDS011;45241;49.768;8.636;2023-07-20T06:20:39;4.30;;;1.92;;
59434;SDS011;45241;49.768;8.636;2023-07-20T06:23:05;4.50;;;1.65;;
59434;SDS011;45241;49.768;8.636;2023-07-20T06:25:30;3.88;;;1.90;;
59434;SDS011;45241;49.768;8.636;2023-07-20T06:27:55;5.90;;;2.10;;
59434;SDS011;45241;49.768;8.636;2023-07-20T06:30:21;4.88;;;2.38;;
59434;SDS011;45241;49.768;8.636;2023-07-20T06:32:47;6.05;;;1.80;;
59434;SDS011;45241;49.768;8.636;2023-07-20T06:35:12;3.92;;;1.73;;
59434;SDS011;45241;49.768;8.636;2023-07-20T06:37:38;3.65;;;2.00;;
59434;SDS011;45241;49.768;8.636;2023-07-20T06:40:03;2.88;;;1.50;;
59434;SDS011;45241;49.768;8.636;2023-07-20T06:42:29;5.97;;;2.20;;
59434;SDS011;45241;49.768;8.636;2023-07-20T06:44:56;5.80;;;2.00;;
59434;SDS011;45241;49.768;8.636;2023-07-20T06:47:21;6.13;;;1.90;;
59434;SDS011;45241;49.768;8.636;2023-07-20T06:49:47;4.47;;;1.65;;
59434;SDS011;45241;49.768;8.636;2023-07-20T06:52:12;2.47;;;1.77;;
59434;SDS011;45241;49.768;8.636;2023-07-20T06:54:37;6.05;;;2.10;;
59434;SDS011;45241;49.768;8.636;2023-07-20T06:57:04;4.60;;;1.88;;
59434;SDS011;45241;49.768;8.636;2023-07-20T06:59:29;3.22;;;1.65;;
59434;SDS011;45241;49.768;8.636;2023-07-20T07:01:55;2.63;;;1.90;;
59434;SDS011;45241;49.768;8.636;2023-07-20T07:04:20;4.70;;;1.98;;
59434;SDS011;45241;49.768;8.636;2023-07-20T07:06:46;2.90;;;1.55;;
59434;SDS011;45241;49.768;8.636;2023-07-20T07:09:11;4.68;;;2.05;;
59434;SDS011;45241;49.768;8.636;2023-07-20T07:11:37;4.65;;;1.92;;
59434;SDS011;45241;49.768;8.636;2023-07-20T07:14:02;4.00;;;1.80;;
59434;SDS011;45241;49.768;8.636;2023-07-20T07:16:28;3.85;;;1.77;;
59434;SDS011;45241;49.768;8.636;2023-07-20T07:18:53;6.43;;;2.20;;
59434;SDS011;45241;49.768;8.636;2023-07-20T07:21:18;5.25;;;2.00;;
59434;SDS011;45241;49.768;8.636;2023-07-20T07:23:44;5.53;;;2.03;;
59434;SDS011;45241;49.768;8.636;2023-07-20T07:26:10;3.92;;;2.00;;
59434;SDS011;45241;49.768;8.636;2023-07-20T07:28:36;4.38;;;1.60;;
59434;SDS011;45241;49.768;8.636;2023-07-20T07:31:04;4.28;;;1.73;;
59434;SDS011;45241;49.768;8.636;2023-07-20T07:33:30;3.85;;;1.80;;
59434;SDS011;45241;49.768;8.636;2023-07-20T07:35:55;6.65;;;1.90;;
59434;SDS011;45241;49.768;8.636;2023-07-20T07:38:21;3.60;;;1.67;;
59434;SDS011;45241;49.768;8.636;2023-07-20T07:40:46;4.95;;;1.95;;
59434;SDS011;45241;49.768;8.636;2023-07-20T07:43:11;4.15;;;1.98;;
59434;SDS011;45241;49.768;8.636;2023-07-20T07:45:38;3.60;;;1.80;;
59434;SDS011;45241;49.768;8.636;2023-07-20T07:48:06;3.13;;;1.92;;
59434;SDS011;45241;49.768;8.636;2023-07-20T07:50:33;3.72;;;2.40;;
59434;SDS011;45241;49.768;8.636;2023-07-20T07:52:58;2.33;;;1.85;;
59434;SDS011;45241;49.768;8.636;2023-07-20T07:55:24;3.53;;;1.90;;
59434;SDS011;45241;49.768;8.636;2023-07-20T07:57:51;3.85;;;1.80;;
59434;SDS011;45241;49.768;8.636;2023-07-20T08:00:17;4.70;;;1.90;;
59434;SDS011;45241;49.768;8.636;2023-07-20T08:02:44;4.43;;;1.92;;
59434;SDS011;45241;49.768;8.636;2023-07-20T08:05:10;3.47;;;1.60;;
59434;SDS011;45241;49.768;8.636;2023-07-20T08:07:36;3.55;;;1.80;;
59434;SDS011;45241;49.768;8.636;2023-07-20T08:10:01;4.05;;;1.92;;
59434;SDS011;45241;49.768;8.636;2023-07-20T08:12:27;5.13;;;2.20;;
59434;SDS011;45241;49.768;8.636;2023-07-20T08:14:52;3.42;;;1.70;;
59434;SDS011;45241;49.768;8.636;2023-07-20T08:17:17;3.65;;;1.75;;
59434;SDS011;45241;49.768;8.636;2023-07-20T08:19:43;5.32;;;2.40;;
59434;SDS011;45241;49.768;8.636;2023-07-20T08:22:09;6.82;;;2.10;;
59434;SDS011;45241;49.768;8.636;2023-07-20T08:24:34;4.30;;;1.67;;
59434;SDS011;45241;49.768;8.636;2023-07-20T08:26:59;5.80;;;1.67;;
59434;SDS011;45241;49.768;8.636;2023-07-20T08:29:25;5.78;;;1.90;;
59434;SDS011;45241;49.768;8.636;2023-07-20T08:31:50;4.45;;;1.80;;
59434;SDS011;45241;49.768;8.636;2023-07-20T08:34:15;3.83;;;2.15;;
59434;SDS011;45241;49.768;8.636;2023-07-20T08:36:41;2.55;;;1.80;;
59434;SDS011;45241;49.768;8.636;2023-07-20T08:39:06;3.42;;;1.67;;
59434;SDS011;45241;49.768;8.636;2023-07-20T08:41:33;2.95;;;1.95;;
59434;SDS011;45241;49.768;8.636;2023-07-20T08:43:59;3.67;;;1.85;;
59434;SDS011;45241;49.768;8.636;2023-07-20T08:46:26;4.53;;;2.25;;
59434;SDS011;45241;49.768;8.636;2023-07-20T08:48:53;6.68;;;2.00;;
59434;SDS011;45241;49.768;8.636;2023-07-20T08:51:20;5.63;;;2.08;;
59434;SDS011;45241;49.768;8.636;2023-07-20T08:53:46;3.92;;;1.60;;
59434;SDS011;45241;49.768;8.636;2023-07-20T08:56:12;3.15;;;1.90;;
59434;SDS011;45241;49.768;8.636;2023-07-20T08:58:41;4.47;;;1.70;;
59434;SDS011;45241;49.768;8.636;2023-07-20T09:01:09;3.67;;;1.95;;
59434;SDS011;45241;49.768;8.636;2023-07-20T09:03:36;3.67;;;1.73;;
59434;SDS011;45241;49.768;8.636;2023-07-20T09:06:04;4.15;;;1.52;;
59434;SDS011;45241;49.768;8.636;2023-07-20T09:08:30;4.80;;;1.50;;
59434;SDS011;45241;49.768;8.636;2023-07-20T09:10:56;3.33;;;1.60;;
59434;SDS011;45241;49.768;8.636;2023-07-20T09:13:21;1.80;;;1.50;;
59434;SDS011;45241;49.768;8.636;2023-07-20T09:15:47;3.05;;;1.70;;
59434;SDS011;45241;49.768;8.636;2023-07-20T09:18:25;2.85;;;1.55;;
59434;SDS011;45241;49.768;8.636;2023-07-20T09:21:12;5.40;;;1.75;;
59434;SDS011;45241;49.768;8.636;2023-07-20T09:23:42;2.67;;;1.50;;
59434;SDS011;45241;49.768;8.636;2023-07-20T09:26:14;3.25;;;1.75;;
59434;SDS011;45241;49.768;8.636;2023-07-20T09:28:48;4.32;;;1.60;;
59434;SDS011;45241;49.768;8.636;2023-07-20T09:31:19;2.42;;;1.60;;
59434;SDS011;45241;49.768;8.636;2023-07-20T09:33:45;5.45;;;1.63;;
59434;SDS011;45241;49.768;8.636;2023-07-20T09:36:12;5.20;;;2.15;;
59434;SDS011;45241;49.768;8.636;2023-07-20T09:38:37;2.33;;;1.52;;
59434;SDS011;45241;49.768;8.636;2023-07-20T09:41:06;1.92;;;1.33;;
59434;SDS011;45241;49.768;8.636;2023-07-20T09:43:33;2.35;;;1.70;;
59434;SDS011;45241;49.768;8.636;2023-07-20T09:45:59;2.22;;;1.48;;
59434;SDS011;45241;49.768;8.636;2023-07-20T09:48:25;1.67;;;1.35;;
59434;SDS011;45241;49.768;8.636;2023-07-20T09:50:51;1.85;;;1.33;;
59434;SDS011;45241;49.768;8.636;2023-07-20T09:53:18;2.35;;;1.50;;
59434;SDS011;45241;49.768;8.636;2023-07-20T09:55:45;2.15;;;1.48;;
59434;SDS011;45241;49.768;8.636;2023-07-20T09:58:15;2.65;;;1.50;;
59434;SDS011;45241;49.768;8.636;2023-07-20T10:00:41;6.00;;;1.73;;
59434;SDS011;45241;49.768;8.636;2023-07-20T10:03:12;4.25;;;1.70;;
59434;SDS011;45241;49.768;8.636;2023-07-20T10:05:43;2.80;;;1.33;;
59434;SDS011;45241;49.768;8.636;2023-07-20T10:08:11;3.42;;;1.48;;
59434;SDS011;45241;49.768;8.636;2023-07-20T10:10:38;2.58;;;1.50;;
59434;SDS011;45241;49.768;8.636;2023-07-20T10:13:08;1.85;;;1.33;;
59434;SDS011;45241;49.768;8.636;2023-07-20T10:16:22;2.47;;;1.50;;
59434;SDS011;45241;49.768;8.636;2023-07-20T10:18:29;1.95;;;1.40;;
59434;SDS011;45241;49.768;8.636;2023-07-20T10:21:00;2.22;;;1.20;;
59434;SDS011;45241;49.768;8.636;2023-07-20T10:23:27;1.70;;;1.10;;
59434;SDS011;45241;49.768;8.636;2023-07-20T10:25:54;1.60;;;1.20;;
59434;SDS011;45241;49.768;8.636;2023-07-20T10:28:20;4.43;;;1.98;;
59434;SDS011;45241;49.768;8.636;2023-07-20T10:30:48;2.05;;;1.25;;
59434;SDS011;45241;49.768;8.636;2023-07-20T10:33:14;2.75;;;1.45;;
59434;SDS011;45241;49.768;8.636;2023-07-20T10:35:56;1.35;;;1.25;;
59434;SDS011;45241;49.768;8.636;2023-07-20T10:44:01;2.08;;;1.15;;
59434;SDS011;45241;49.768;8.636;2023-07-20T10:48:59;2.30;;;1.10;;
59434;SDS011;45241;49.768;8.636;2023-07-20T10:51:27;1.88;;;1.17;;
59434;SDS011;45241;49.768;8.636;2023-07-20T10:53:53;2.67;;;1.05;;
59434;SDS011;45241;49.768;8.636;2023-07-20T10:56:22;1.25;;;1.05;;
59434;SDS011;45241;49.768;8.636;2023-07-20T10:58:50;2.70;;;1.30;;
59434;SDS011;45241;49.768;8.636;2023-07-20T11:01:21;2.90;;;1.05;;
59434;SDS011;45241;49.768;8.636;2023-07-20T11:03:56;1.70;;;1.10;;
59434;SDS011;45241;49.768;8.636;2023-07-20T11:11:26;1.33;;;1.10;;
59434;SDS011;45241;49.768;8.636;2023-07-20T11:16:20;7.88;;;1.48;;
59434;SDS011;45241;49.768;8.636;2023-07-20T11:19:00;1.60;;;1.02;;
59434;SDS011;45241;49.768;8.636;2023-07-20T11:21:26;1.52;;;1.20;;
59434;SDS011;45241;49.768;8.636;2023-07-20T11:23:52;2.03;;;1.02;;
59434;SDS011;45241;49.768;8.636;2023-07-20T11:26:18;1.05;;;0.95;;
59434;SDS011;45241;49.768;8.636;2023-07-20T11:28:48;3.88;;;1.00;;
59434;SDS011;45241;49.768;8.636;2023-07-20T11:31:16;1.33;;;1.02;;
59434;SDS011;45241;49.768;8.636;2023-07-20T11:33:42;2.25;;;0.98;;
59434;SDS011;45241;49.768;8.636;2023-07-20T11:36:08;3.20;;;1.00;;
59434;SDS011;45241;49.768;8.636;2023-07-20T11:38:33;3.35;;;1.20;;
59434;SDS011;45241;49.768;8.636;2023-07-20T11:40:59;1.80;;;1.27;;
59434;SDS011;45241;49.768;8.636;2023-07-20T11:43:24;2.92;;;0.93;;
59434;SDS011;45241;49.768;8.636;2023-07-20T11:45:51;1.42;;;0.90;;
59434;SDS011;45241;49.768;8.636;2023-07-20T11:48:16;2.20;;;1.25;;
59434;SDS011;45241;49.768;8.636;2023-07-20T11:50:42;1.50;;;0.90;;
59434;SDS011;45241;49.768;8.636;2023-07-20T11:53:08;1.77;;;0.95;;
59434;SDS011;45241;49.768;8.636;2023-07-20T11:55:34;1.65;;;1.20;;
59434;SDS011;45241;49.768;8.636;2023-07-20T11:58:06;2.13;;;1.02;;
59434;SDS011;45241;49.768;8.636;2023-07-20T12:00:33;2.17;;;1.10;;
59434;SDS011;45241;49.768;8.636;2023-07-20T12:02:59;2.50;;;1.20;;
59434;SDS011;45241;49.768;8.636;2023-07-20T12:05:25;2.78;;;1.17;;
59434;SDS011;45241;49.768;8.636;2023-07-20T12:07:51;1.42;;;1.05;;
59434;SDS011;45241;49.768;8.636;2023-07-20T12:10:22;2.00;;;0.80;;
59434;SDS011;45241;49.768;8.636;2023-07-20T12:12:50;3.80;;;1.00;;
59434;SDS011;45241;49.768;8.636;2023-07-20T12:17:51;2.40;;;1.05;;
59434;SDS011;45241;49.768;8.636;2023-07-20T12:20:34;1.85;;;0.90;;
59434;SDS011;45241;49.768;8.636;2023-07-20T12:23:05;2.47;;;1.00;;
59434;SDS011;45241;49.768;8.636;2023-07-20T12:25:42;3.20;;;1.00;;
59434;SDS011;45241;49.768;8.636;2023-07-20T12:28:12;2.55;;;1.17;;
59434;SDS011;45241;49.768;8.636;2023-07-20T12:30:40;1.65;;;1.13;;
59434;SDS011;45241;49.768;8.636;2023-07-20T12:33:06;0.93;;;0.82;;
59434;SDS011;45241;49.768;8.636;2023-07-20T12:35:32;1.85;;;1.00;;
59434;SDS011;45241;49.768;8.636;2023-07-20T12:37:57;3.55;;;0.90;;
59434;SDS011;45241;49.768;8.636;2023-07-20T12:40:23;1.50;;;1.02;;
59434;SDS011;45241;49.768;8.636;2023-07-20T12:42:49;4.63;;;1.20;;
59434;SDS011;45241;49.768;8.636;2023-07-20T12:45:14;1.90;;;0.80;;
59434;SDS011;45241;49.768;8.636;2023-07-20T12:47:40;2.67;;;1.00;;
59434;SDS011;45241;49.768;8.636;2023-07-20T12:50:07;3.55;;;0.90;;
59434;SDS011;45241;49.768;8.636;2023-07-20T12:52:35;1.92;;;0.93;;
59434;SDS011;45241;49.768;8.636;2023-07-20T12:55:01;2.05;;;0.75;;
59434;SDS011;45241;49.768;8.636;2023-07-20T12:57:27;3.13;;;0.95;;
59434;SDS011;45241;49.768;8.636;2023-07-20T12:59:52;1.10;;;0.95;;
59434;SDS011;45241;49.768;8.636;2023-07-20T13:02:18;1.60;;;0.90;;
59434;SDS011;45241;49.768;8.636;2023-07-20T13:04:43;1.55;;;1.00;;
59434;SDS011;45241;49.768;8.636;2023-07-20T13:07:09;2.08;;;1.20;;
59434;SDS011;45241;49.768;8.636;2023-07-20T13:09:36;3.78;;;1.30;;
59434;SDS011;45241;49.768;8.636;2023-07-20T13:12:01;3.85;;;1.20;;
59434;SDS011;45241;49.768;8.636;2023-07-20T13:14:27;1.50;;;0.90;;
59434;SDS011;45241;49.768;8.636;2023-07-20T13:16:54;1.83;;;1.00;;
59434;SDS011;45241;49.768;8.636;2023-07-20T13:19:20;2.20;;;0.90;;
59434;SDS011;45241;49.768;8.636;2023-07-20T13:21:45;1.67;;;1.17;;
59434;SDS011;45241;49.768;8.636;2023-07-20T13:24:11;2.75;;;1.05;;
59434;SDS011;45241;49.768;8.636;2023-07-20T13:26:36;2.15;;;0.98;;
59434;SDS011;45241;49.768;8.636;2023-07-20T13:29:01;2.58;;;1.08;;
59434;SDS011;45241;49.768;8.636;2023-07-20T13:31:27;2.03;;;0.90;;
59434;SDS011;45241;49.768;8.636;2023-07-20T13:33:53;1.42;;;1.08;;
59434;SDS011;45241;49.768;8.636;2023-07-20T13:36:18;1.65;;;1.27;;
59434;SDS011;45241;49.768;8.636;2023-07-20T13:38:43;3.97;;;1.10;;
59434;SDS011;45241;49.768;8.636;2023-07-20T13:41:09;1.85;;;0.93;;
59434;SDS011;45241;49.768;8.636;2023-07-20T13:43:34;2.42;;;1.00;;
59434;SDS011;45241;49.768;8.636;2023-07-20T13:45:59;1.70;;;1.08;;
59434;SDS011;45241;49.768;8.636;2023-07-20T13:48:25;1.83;;;0.93;;
59434;SDS011;45241;49.768;8.636;2023-07-20T13:50:50;1.38;;;1.10;;
59434;SDS011;45241;49.768;8.636;2023-07-20T13:53:16;1.90;;;1.10;;
59434;SDS011;45241;49.768;8.636;2023-07-20T13:55:41;2.40;;;1.00;;
59434;SDS011;45241;49.768;8.636;2023-07-20T13:58:07;3.47;;;1.13;;
59434;SDS011;45241;49.768;8.636;2023-07-20T14:00:34;3.60;;;1.02;;
59434;SDS011;45241;49.768;8.636;2023-07-20T14:03:00;1.15;;;1.05;;
59434;SDS011;45241;49.768;8.636;2023-07-20T14:05:25;3.83;;;1.10;;
59434;SDS011;45241;49.768;8.636;2023-07-20T14:07:50;2.13;;;0.90;;
59434;SDS011;45241;49.768;8.636;2023-07-20T14:10:16;2.38;;;1.08;;
59434;SDS011;45241;49.768;8.636;2023-07-20T14:12:41;1.52;;;0.90;;
59434;SDS011;45241;49.768;8.636;2023-07-20T14:15:07;1.38;;;0.90;;
59434;SDS011;45241;49.768;8.636;2023-07-20T14:17:32;1.30;;;1.00;;
59434;SDS011;45241;49.768;8.636;2023-07-20T14:19:57;2.88;;;0.93;;
59434;SDS011;45241;49.768;8.636;2023-07-20T14:22:22;1.48;;;1.05;;
59434;SDS011;45241;49.768;8.636;2023-07-20T14:24:48;2.38;;;0.95;;
59434;SDS011;45241;49.768;8.636;2023-07-20T14:27:14;1.77;;;1.15;;
59434;SDS011;45241;49.768;8.636;2023-07-20T14:29:39;1.70;;;1.10;;
59434;SDS011;45241;49.768;8.636;2023-07-20T14:32:04;1.85;;;0.80;;
59434;SDS011;45241;49.768;8.636;2023-07-20T14:34:32;1.02;;;0.90;;
59434;SDS011;45241;49.768;8.636;2023-07-20T14:36:59;1.85;;;1.10;;
59434;SDS011;45241;49.768;8.636;2023-07-20T14:39:24;3.58;;;1.00;;
59434;SDS011;45241;49.768;8.636;2023-07-20T14:41:50;3.17;;;1.00;;
59434;SDS011;45241;49.768;8.636;2023-07-20T14:44:16;1.75;;;1.25;;
59434;SDS011;45241;49.768;8.636;2023-07-20T14:46:41;2.47;;;1.10;;
59434;SDS011;45241;49.768;8.636;2023-07-20T14:49:06;1.73;;;0.88;;
59434;SDS011;45241;49.768;8.636;2023-07-20T14:51:32;2.75;;;0.88;;
59434;SDS011;45241;49.768;8.636;2023-07-20T14:53:58;2.65;;;1.17;;
59434;SDS011;45241;49.768;8.636;2023-07-20T14:56:24;1.92;;;1.00;;
59434;SDS011;45241;49.768;8.636;2023-07-20T14:58:50;1.80;;;0.93;;
59434;SDS011;45241;49.768;8.636;2023-07-20T15:01:15;2.72;;;0.85;;
59434;SDS011;45241;49.768;8.636;2023-07-20T15:03:40;1.42;;;1.10;;
59434;SDS011;45241;49.768;8.636;2023-07-20T15:06:10;1.95;;;1.10;;
59434;SDS011;45241;49.768;8.636;2023-07-20T15:08:36;1.90;;;1.13;;
59434;SDS011;45241;49.768;8.636;2023-07-20T15:11:01;2.10;;;1.00;;
59434;SDS011;45241;49.768;8.636;2023-07-20T15:13:27;1.90;;;1.10;;